createdAt,value
2022-09-06T00:00:18.657Z,22.31
2022-09-06T00:02:47.397Z,22.20
2022-09-06T00:05:15.518Z,22.17
2022-09-06T00:07:44.947Z,22.17
2022-09-06T00:10:13.589Z,22.16
2022-09-06T00:12:41.749Z,22.17
2022-09-06T00:15:10.745Z,22.23
2022-09-06T00:17:38.758Z,22.18
2022-09-06T00:20:09.329Z,22.13
2022-09-06T00:22:37.543Z,22.08
2022-09-06T00:25:08.136Z,22.10
2022-09-06T00:27:36.691Z,22.13
2022-09-06T00:30:05.746Z,22.13
2022-09-06T00:32:34.045Z,22.09
2022-09-06T00:35:02.074Z,22.05
2022-09-06T00:37:30.205Z,21.96
2022-09-06T00:39:58.277Z,21.82
2022-09-06T00:42:27.715Z,21.81
2022-09-06T00:44:55.883Z,21.79
2022-09-06T00:47:24.088Z,21.81
2022-09-06T00:49:54.601Z,21.79
2022-09-06T00:52:24.219Z,21.81
2022-09-06T00:54:52.776Z,21.83
2022-09-06T00:57:21.280Z,21.83
2022-09-06T00:59:51.662Z,21.85
2022-09-06T01:02:20.249Z,21.88
2022-09-06T01:04:51.230Z,21.89
2022-09-06T01:07:28.985Z,21.88
2022-09-06T01:10:14.801Z,21.81
2022-09-06T01:12:51.326Z,21.82
2022-09-06T01:15:32.365Z,21.75
2022-09-06T01:18:14.230Z,21.76
2022-09-06T01:21:15.333Z,21.81
2022-09-06T01:24:29.179Z,21.70
2022-09-06T01:27:35.263Z,21.52
2022-09-06T01:30:10.288Z,21.35
2022-09-06T01:32:48.192Z,21.27
2022-09-06T01:35:23.050Z,21.33
2022-09-06T01:37:51.346Z,21.40
2022-09-06T01:40:19.571Z,21.37
2022-09-06T01:42:51.580Z,21.44
2022-09-06T01:45:24.475Z,21.46
2022-09-06T01:48:10.694Z,21.48
2022-09-06T01:50:51.070Z,21.49
2022-09-06T01:53:34.545Z,21.49
2022-09-06T01:56:10.084Z,21.51
2022-09-06T01:58:56.755Z,21.45
2022-09-06T02:01:31.553Z,21.23
2022-09-06T02:04:04.651Z,21.24
2022-09-06T02:06:36.867Z,21.30
2022-09-06T02:09:09.009Z,21.28
2022-09-06T02:11:41.806Z,21.23
2022-09-06T02:14:14.572Z,21.28
2022-09-06T02:16:46.810Z,21.34
2022-09-06T02:19:19.306Z,21.37
2022-09-06T02:21:48.726Z,21.42
2022-09-06T02:24:21.146Z,21.41
2022-09-06T02:26:49.457Z,21.36
2022-09-06T02:29:18.642Z,21.36
2022-09-06T02:31:51.921Z,21.38
2022-09-06T02:34:21.261Z,21.33
2022-09-06T02:36:49.616Z,21.19
2022-09-06T02:39:17.732Z,20.87
2022-09-06T02:41:47.971Z,20.91
2022-09-06T02:44:16.224Z,21.05
2022-09-06T02:46:44.247Z,21.12
2022-09-06T02:49:13.648Z,21.15
2022-09-06T02:51:41.876Z,21.16
2022-09-06T02:54:09.917Z,21.18
2022-09-06T02:56:38.193Z,21.24
2022-09-06T02:59:06.966Z,21.26
2022-09-06T03:01:35.319Z,21.29
2022-09-06T03:04:03.965Z,21.33
2022-09-06T03:06:33.608Z,21.24
2022-09-06T03:09:01.843Z,21.25
2022-09-06T03:11:29.859Z,21.26
2022-09-06T03:13:57.878Z,21.26
2022-09-06T03:16:26.005Z,21.21
2022-09-06T03:18:54.070Z,21.13
2022-09-06T03:21:22.097Z,21.08
2022-09-06T03:23:51.529Z,20.98
2022-09-06T03:26:19.639Z,20.79
2022-09-06T03:28:47.714Z,20.76
2022-09-06T03:31:15.743Z,20.79
2022-09-06T03:33:43.791Z,20.85
2022-09-06T03:36:11.875Z,20.90
2022-09-06T03:38:40.075Z,20.97
2022-09-06T03:41:09.446Z,20.99
2022-09-06T03:43:37.693Z,21.02
2022-09-06T03:46:05.890Z,21.03
2022-09-06T03:48:33.956Z,21.05
2022-09-06T03:51:02.260Z,21.05
2022-09-06T03:53:30.669Z,21.06
2022-09-06T03:55:59.723Z,21.07
2022-09-06T03:58:32.970Z,21.08
2022-09-06T04:01:02.828Z,20.98
2022-09-06T04:03:30.963Z,20.74
2022-09-06T04:05:58.985Z,20.63
2022-09-06T04:08:27.659Z,20.53
2022-09-06T04:10:56.401Z,20.51
2022-09-06T04:13:25.432Z,20.49
2022-09-06T04:15:55.173Z,20.51
2022-09-06T04:18:23.641Z,20.59
2022-09-06T04:20:53.310Z,20.55
2022-09-06T04:23:21.936Z,20.59
2022-09-06T04:25:51.411Z,20.61
2022-09-06T04:28:20.047Z,20.62
2022-09-06T04:30:55.146Z,20.67
2022-09-06T04:33:25.926Z,20.66
2022-09-06T04:35:54.904Z,20.68
2022-09-06T04:38:23.089Z,20.72
2022-09-06T04:40:51.273Z,20.72
2022-09-06T04:43:19.515Z,20.75
2022-09-06T04:45:47.675Z,20.75
2022-09-06T04:48:17.321Z,20.76
2022-09-06T04:50:45.391Z,20.78
2022-09-06T04:53:13.503Z,20.84
2022-09-06T04:55:41.631Z,20.87
2022-09-06T04:58:09.696Z,20.83
2022-09-06T05:00:38.947Z,20.83
2022-09-06T05:03:07.007Z,20.80
2022-09-06T05:05:36.488Z,20.81
2022-09-06T05:08:04.772Z,20.79
2022-09-06T05:10:32.772Z,20.65
2022-09-06T05:13:00.794Z,20.63
2022-09-06T05:15:28.835Z,20.70
2022-09-06T05:18:04.423Z,20.74
2022-09-06T05:20:32.671Z,20.76
2022-09-06T05:23:02.322Z,20.77
2022-09-06T05:25:31.181Z,20.71
2022-09-06T05:27:59.168Z,20.67
2022-09-06T05:30:27.176Z,20.73
2022-09-06T05:32:55.183Z,20.62
2022-09-06T05:35:23.249Z,20.60
2022-09-06T05:37:51.325Z,20.63
2022-09-06T05:40:20.735Z,20.67
2022-09-06T05:42:48.766Z,20.66
2022-09-06T05:45:17.181Z,20.61
2022-09-06T05:47:45.244Z,20.68
2022-09-06T05:50:13.587Z,20.75
2022-09-06T05:52:41.599Z,20.76
2022-09-06T05:55:10.413Z,20.71
2022-09-06T05:57:39.872Z,20.69
2022-09-06T06:00:12.088Z,20.67
2022-09-06T06:02:41.047Z,20.67
2022-09-06T06:05:09.772Z,20.68
2022-09-06T06:07:37.783Z,20.63
2022-09-06T06:10:06.723Z,20.73
2022-09-06T06:12:34.691Z,20.79
2022-09-06T06:15:05.766Z,20.75
2022-09-06T06:17:34.188Z,20.55
2022-09-06T06:20:02.260Z,20.36
2022-09-06T06:22:30.269Z,20.16
2022-09-06T06:24:58.336Z,20.29
2022-09-06T06:27:26.387Z,20.61
2022-09-06T06:29:54.388Z,20.83
2022-09-06T06:32:23.769Z,20.89
2022-09-06T06:34:51.768Z,20.91
2022-09-06T06:37:19.811Z,20.91
2022-09-06T06:39:47.984Z,20.76
2022-09-06T06:42:16.130Z,20.66
2022-09-06T06:44:53.556Z,20.62
2022-09-06T06:47:22.954Z,20.64
2022-09-06T06:49:51.041Z,20.59
2022-09-06T06:52:21.417Z,20.49
2022-09-06T06:54:50.170Z,20.32
2022-09-06T06:57:18.192Z,20.24
2022-09-06T06:59:46.256Z,20.28
2022-09-06T07:02:15.765Z,20.32
2022-09-06T07:04:45.338Z,20.20
2022-09-06T07:12:49.407Z,20.00
2022-09-06T07:15:17.508Z,20.09
2022-09-06T07:17:45.777Z,19.87
2022-09-06T07:20:16.063Z,19.49
2022-09-06T07:22:44.481Z,19.41
2022-09-06T07:25:16.588Z,19.54
2022-09-06T07:27:49.480Z,19.38
2022-09-06T07:30:19.610Z,19.50
2022-09-06T07:32:47.779Z,19.66
2022-09-06T07:35:17.480Z,19.87
2022-09-06T07:37:53.081Z,19.77
2022-09-06T07:40:21.119Z,19.69
2022-09-06T07:42:49.388Z,19.53
2022-09-06T07:45:17.761Z,19.49
2022-09-06T07:48:01.119Z,19.52
2022-09-06T07:50:48.430Z,19.55
2022-09-06T07:53:24.604Z,19.72
2022-09-06T07:55:57.282Z,19.81
2022-09-06T07:58:25.403Z,19.94
2022-09-06T08:00:53.454Z,20.05
2022-09-06T08:03:21.576Z,20.16
2022-09-06T08:06:09.988Z,20.33
2022-09-06T08:11:28.932Z,20.56
2022-09-06T08:13:58.161Z,20.73
2022-09-06T08:16:29.045Z,20.82
2022-09-06T08:18:58.573Z,20.83
2022-09-06T08:21:30.314Z,20.88
2022-09-06T08:24:00.508Z,21.01
2022-09-06T08:26:30.203Z,21.12
2022-09-06T08:29:00.262Z,21.11
2022-09-06T08:31:29.598Z,20.90
2022-09-06T08:33:58.275Z,20.77
2022-09-06T08:36:29.716Z,20.94
2022-09-06T08:38:57.995Z,21.15
2022-09-06T08:41:27.954Z,21.42
2022-09-06T08:46:55.453Z,21.79
2022-09-06T08:49:24.944Z,21.89
2022-09-06T08:52:14.453Z,21.96
2022-09-06T08:54:49.729Z,22.04
2022-09-06T08:57:40.117Z,22.07
2022-09-06T09:00:12.282Z,22.06
2022-09-06T09:02:45.343Z,22.12
2022-09-06T09:05:26.550Z,22.19
2022-09-06T09:08:07.415Z,22.29
2022-09-06T09:10:42.588Z,22.35
2022-09-06T09:13:19.904Z,22.39
2022-09-06T09:15:48.019Z,22.47
2022-09-06T09:18:21.841Z,22.66
2022-09-06T09:20:49.897Z,22.79
2022-09-06T09:23:19.279Z,22.85
2022-09-06T09:25:49.247Z,22.89
2022-09-06T09:28:20.359Z,22.71
2022-09-06T09:30:51.168Z,22.61
2022-09-06T09:33:23.846Z,22.61
2022-09-06T09:35:52.809Z,22.72
2022-09-06T09:38:25.779Z,22.71
2022-09-06T09:40:55.666Z,22.81
2022-09-06T09:43:25.795Z,22.90
2022-09-06T09:46:17.496Z,23.04
2022-09-06T09:49:01.202Z,23.03
2022-09-06T09:51:30.456Z,23.06
2022-09-06T09:54:01.704Z,23.06
2022-09-06T09:56:41.506Z,23.25
2022-09-06T09:59:21.983Z,23.33
2022-09-06T10:01:50.472Z,23.50
2022-09-06T10:07:14.275Z,23.51
2022-09-06T10:09:46.525Z,23.60
2022-09-06T10:12:20.150Z,23.63
2022-09-06T10:14:49.703Z,23.79
2022-09-06T10:17:29.011Z,23.96
2022-09-06T10:19:57.748Z,24.01
2022-09-06T10:22:30.601Z,24.07
2022-09-06T10:25:48.934Z,24.09
2022-09-06T10:28:41.856Z,23.98
2022-09-06T10:31:33.989Z,24.19
2022-09-06T10:34:31.867Z,24.28
2022-09-06T10:37:09.607Z,24.40
2022-09-06T10:39:49.493Z,24.48
2022-09-06T10:42:29.940Z,24.50
2022-09-06T10:45:25.399Z,24.64
2022-09-06T10:47:58.612Z,24.57
2022-09-06T10:50:34.874Z,24.60
2022-09-06T10:53:10.779Z,24.69
2022-09-06T10:55:41.289Z,24.69
2022-09-06T11:00:47.677Z,24.91
2022-09-06T11:06:18.326Z,25.07
2022-09-06T11:08:57.837Z,25.08
2022-09-06T11:11:35.530Z,25.26
2022-09-06T11:14:10.154Z,25.35
2022-09-06T11:16:44.925Z,25.29
2022-09-06T11:19:17.793Z,25.23
2022-09-06T11:22:24.889Z,25.24
2022-09-06T11:25:34.296Z,25.26
2022-09-06T11:28:05.141Z,25.22
2022-09-06T11:30:35.392Z,25.19
2022-09-06T11:33:11.474Z,25.29
2022-09-06T11:35:42.650Z,25.55
2022-09-06T11:38:22.722Z,25.68
2022-09-06T11:41:00.683Z,25.64
2022-09-06T11:43:47.634Z,25.51
2022-09-06T11:46:53.179Z,25.55
2022-09-06T11:49:32.371Z,25.50
2022-09-06T11:52:00.557Z,25.62
2022-09-06T11:54:44.909Z,25.62
2022-09-06T11:57:17.695Z,25.61
2022-09-06T11:59:57.386Z,25.27
2022-09-06T12:02:35.351Z,25.21
2022-09-06T12:05:30.247Z,25.28
2022-09-06T12:08:29.249Z,25.23
2022-09-06T12:11:00.908Z,25.30
2022-09-06T12:13:54.381Z,25.33
2022-09-06T12:16:23.247Z,25.45
2022-09-06T12:18:57.449Z,25.44
2022-09-06T12:21:52.460Z,25.52
2022-09-06T12:24:52.422Z,25.46
2022-09-06T12:27:22.408Z,25.49
2022-09-06T12:29:56.233Z,25.52
2022-09-06T12:32:27.900Z,25.66
2022-09-06T12:37:55.656Z,25.62
2022-09-06T12:40:26.572Z,25.64
2022-09-06T12:42:55.336Z,25.68
2022-09-06T12:45:27.378Z,25.72
2022-09-06T12:48:06.192Z,25.84
2022-09-06T12:50:34.243Z,25.92
2022-09-06T12:53:05.729Z,26.02
2022-09-06T12:55:36.323Z,25.91
2022-09-06T12:58:07.514Z,25.98
2022-09-06T13:00:37.985Z,26.18
2022-09-06T13:03:11.919Z,26.25
2022-09-06T13:05:41.598Z,26.25
2022-09-06T13:08:15.871Z,26.23
2022-09-06T13:10:46.278Z,26.40
2022-09-06T13:13:22.181Z,26.59
2022-09-06T13:15:50.610Z,26.68
2022-09-06T13:18:27.373Z,26.69
2022-09-06T13:21:00.701Z,26.88
2022-09-06T13:23:31.603Z,26.89
2022-09-06T13:25:59.700Z,27.03
2022-09-06T13:28:30.055Z,27.24
2022-09-06T13:31:08.149Z,27.29
2022-09-06T13:33:37.922Z,27.25
2022-09-06T13:36:20.767Z,27.21
2022-09-06T13:38:50.803Z,27.27
2022-09-06T13:41:38.907Z,27.30
2022-09-06T13:44:08.977Z,27.34
2022-09-06T13:46:37.309Z,27.51
2022-09-06T13:49:06.171Z,27.58
2022-09-06T13:51:35.241Z,27.79
2022-09-06T13:54:10.594Z,27.96
2022-09-06T13:56:39.315Z,27.83
2022-09-06T13:59:09.910Z,27.91
2022-09-06T14:01:39.413Z,27.86
2022-09-06T14:04:08.340Z,27.86
2022-09-06T14:06:37.237Z,27.92
2022-09-06T14:09:08.331Z,27.88
2022-09-06T14:11:37.200Z,27.65
2022-09-06T14:14:05.579Z,27.53
2022-09-06T14:16:34.465Z,27.29
2022-09-06T14:19:02.591Z,27.02
2022-09-06T14:21:30.660Z,27.12
2022-09-06T14:24:03.921Z,27.35
2022-09-06T14:26:34.861Z,27.12
2022-09-06T14:29:03.251Z,27.22
2022-09-06T14:31:32.670Z,27.41
2022-09-06T14:34:02.218Z,27.32
2022-09-06T14:36:31.873Z,27.25
2022-09-06T14:39:00.917Z,27.33
2022-09-06T14:41:29.102Z,27.41
2022-09-06T14:43:59.634Z,27.37
2022-09-06T14:46:29.892Z,27.24
2022-09-06T14:48:59.427Z,27.21
2022-09-06T14:51:27.485Z,27.25
2022-09-06T14:53:58.514Z,27.04
2022-09-06T14:56:27.181Z,26.90
2022-09-06T14:58:57.556Z,26.86
2022-09-06T15:01:32.927Z,26.78
2022-09-06T15:04:05.403Z,26.81
2022-09-06T15:06:36.795Z,26.81
2022-09-06T15:09:05.738Z,26.89
2022-09-06T15:11:36.326Z,26.81
2022-09-06T15:14:06.294Z,26.80
2022-09-06T15:16:36.554Z,26.71
2022-09-06T15:19:05.002Z,26.64
2022-09-06T15:21:33.511Z,26.51
2022-09-06T15:24:02.551Z,26.43
2022-09-06T15:26:31.501Z,26.42
2022-09-06T15:28:59.495Z,26.45
2022-09-06T15:31:27.639Z,26.40
2022-09-06T15:33:58.114Z,26.40
2022-09-06T15:36:26.217Z,26.44
2022-09-06T15:38:54.878Z,26.40
2022-09-06T15:41:25.334Z,26.40
2022-09-06T15:43:56.812Z,26.38
2022-09-06T15:46:43.496Z,26.31
2022-09-06T15:49:14.797Z,26.27
2022-09-06T15:51:43.308Z,26.25
2022-09-06T15:54:12.765Z,26.16
2022-09-06T15:56:40.323Z,26.11
2022-09-06T15:59:08.373Z,26.08
2022-09-06T16:01:38.597Z,26.02
2022-09-06T16:04:07.736Z,25.98
2022-09-06T16:06:39.702Z,25.88
2022-09-06T16:09:10.374Z,25.77
2022-09-06T16:11:38.807Z,25.66
2022-09-06T16:14:08.698Z,25.61
2022-09-06T16:16:37.033Z,25.53
2022-09-06T16:19:05.654Z,25.52
2022-09-06T16:21:35.811Z,25.48
2022-09-06T16:24:07.040Z,25.43
2022-09-06T16:26:37.171Z,25.35
2022-09-06T16:29:07.057Z,25.27
2022-09-06T16:31:39.706Z,25.23
2022-09-06T16:34:08.702Z,25.12
2022-09-06T16:36:36.953Z,24.80
2022-09-06T16:39:07.140Z,24.26
2022-09-06T16:41:40.473Z,23.83
2022-09-06T16:44:09.477Z,23.39
2022-09-06T16:46:40.188Z,23.29
2022-09-06T16:49:08.347Z,23.05
2022-09-06T16:51:36.905Z,22.96
2022-09-06T16:54:06.331Z,22.61
2022-09-06T16:56:36.008Z,20.75
2022-09-06T16:59:05.988Z,20.33
2022-09-06T17:01:34.695Z,20.51
2022-09-06T17:04:03.534Z,20.73
2022-09-06T17:06:33.072Z,20.72
2022-09-06T17:09:01.149Z,21.10
2022-09-06T17:11:30.890Z,21.38
2022-09-06T17:13:59.174Z,21.55
2022-09-06T17:16:44.786Z,21.52
2022-09-06T17:19:13.592Z,21.03
2022-09-06T17:21:41.943Z,21.12
2022-09-06T17:24:10.704Z,21.18
2022-09-06T17:26:41.115Z,21.32
2022-09-06T17:29:10.471Z,21.30
2022-09-06T17:31:38.996Z,21.30
2022-09-06T17:34:07.742Z,21.43
2022-09-06T17:36:36.532Z,21.59
2022-09-06T17:39:06.525Z,21.67
2022-09-06T17:41:38.748Z,21.65
2022-09-06T17:44:10.559Z,21.71
2022-09-06T17:46:47.562Z,21.68
2022-09-06T17:49:20.659Z,21.67
2022-09-06T17:51:49.380Z,21.64
2022-09-06T17:54:17.721Z,21.52
2022-09-06T17:56:45.856Z,21.42
2022-09-06T17:59:15.742Z,21.23
2022-09-06T18:01:46.374Z,21.17
2022-09-06T18:04:15.289Z,21.22
2022-09-06T18:06:46.530Z,21.14
2022-09-06T18:09:17.501Z,21.11
2022-09-06T18:11:47.157Z,21.23
2022-09-06T18:14:20.856Z,21.00
2022-09-06T18:16:49.498Z,20.95
2022-09-06T18:19:18.777Z,21.03
2022-09-06T18:21:47.571Z,21.08
2022-09-06T18:24:16.365Z,21.06
2022-09-06T18:26:44.777Z,21.02
2022-09-06T18:29:15.046Z,21.09
2022-09-06T18:31:45.891Z,21.05
2022-09-06T18:34:14.095Z,21.02
2022-09-06T18:36:42.283Z,21.02
2022-09-06T18:39:11.395Z,21.04
2022-09-06T18:41:57.007Z,21.06
2022-09-06T18:44:25.632Z,21.10
2022-09-06T18:46:56.953Z,21.02
2022-09-06T18:49:25.133Z,20.98
2022-09-06T18:51:53.130Z,20.97
2022-09-06T18:54:21.752Z,20.94
2022-09-06T18:56:50.422Z,20.90
2022-09-06T18:59:19.092Z,20.82
2022-09-06T19:01:47.216Z,20.83
2022-09-06T19:04:16.796Z,20.76
2022-09-06T19:06:46.039Z,20.66
2022-09-06T19:09:16.463Z,20.43
2022-09-06T19:11:46.972Z,20.25
2022-09-06T19:14:15.050Z,20.54
2022-09-06T19:16:44.537Z,20.78
2022-09-06T19:19:13.508Z,20.88
2022-09-06T19:21:42.929Z,20.88
2022-09-06T19:24:14.598Z,20.86
2022-09-06T19:26:44.835Z,20.88
2022-09-06T19:29:15.409Z,20.88
2022-09-06T19:31:43.868Z,20.52
2022-09-06T19:34:13.566Z,20.21
2022-09-06T19:36:44.498Z,20.39
2022-09-06T19:39:15.420Z,20.61
2022-09-06T19:41:46.908Z,20.74
2022-09-06T19:44:16.751Z,20.83
2022-09-06T19:46:46.940Z,20.90
2022-09-06T19:49:19.188Z,20.90
2022-09-06T19:51:50.900Z,20.72
2022-09-06T19:54:19.483Z,20.35
2022-09-06T19:56:48.068Z,20.22
2022-09-06T19:59:17.748Z,20.34
2022-09-06T20:01:47.743Z,20.60
2022-09-06T20:04:16.463Z,20.72
2022-09-06T20:06:44.605Z,20.75
2022-09-06T20:09:15.914Z,20.34
2022-09-06T20:11:44.049Z,20.42
2022-09-06T20:14:13.205Z,20.56
2022-09-06T20:16:42.669Z,20.67
2022-09-06T20:19:12.025Z,20.84
2022-09-06T20:21:40.267Z,20.95
2022-09-06T20:24:08.475Z,21.06
2022-09-06T20:26:38.158Z,21.07
2022-09-06T20:29:06.948Z,21.01
2022-09-06T20:31:36.908Z,21.03
2022-09-06T20:34:06.446Z,20.98
2022-09-06T20:36:34.379Z,20.69
2022-09-06T20:39:03.042Z,20.70
2022-09-06T20:41:31.093Z,20.81
2022-09-06T20:44:01.246Z,20.96
2022-09-06T20:46:32.163Z,21.01
2022-09-06T20:49:04.382Z,21.02
2022-09-06T20:51:33.899Z,20.77
2022-09-06T20:54:02.677Z,20.51
2022-09-06T20:56:34.422Z,20.61
2022-09-06T20:59:06.315Z,20.70
2022-09-06T21:01:36.271Z,20.72
2022-09-06T21:04:06.475Z,20.58
2022-09-06T21:06:36.195Z,20.53
2022-09-06T21:09:05.848Z,20.61
2022-09-06T21:11:34.260Z,20.66
2022-09-06T21:14:04.115Z,20.68
2022-09-06T21:16:32.607Z,20.70
2022-09-06T21:19:02.579Z,20.75
2022-09-06T21:21:32.499Z,20.78
2022-09-06T21:24:01.407Z,20.86
2022-09-06T21:26:29.559Z,20.75
2022-09-06T21:28:57.623Z,20.76
2022-09-06T21:31:28.767Z,20.83
2022-09-06T21:33:58.595Z,20.74
2022-09-06T21:36:29.993Z,20.30
2022-09-06T21:39:00.192Z,20.06
2022-09-06T21:41:29.309Z,20.21
2022-09-06T21:43:59.639Z,20.43
2022-09-06T21:46:33.190Z,20.56
2022-09-06T21:49:03.552Z,20.61
2022-09-06T21:51:32.676Z,20.65
2022-09-06T21:54:03.571Z,20.67
2022-09-06T21:56:32.506Z,20.68
2022-09-06T21:59:00.807Z,20.67
2022-09-06T22:01:32.559Z,20.67
2022-09-06T22:04:01.244Z,20.66
2022-09-06T22:06:31.070Z,20.60
2022-09-06T22:09:00.474Z,20.62
2022-09-06T22:11:31.147Z,20.64
2022-09-06T22:14:00.097Z,20.63
2022-09-06T22:16:28.735Z,20.61
2022-09-06T22:18:58.472Z,20.66
2022-09-06T22:21:26.735Z,20.63
2022-09-06T22:23:56.424Z,20.68
2022-09-06T22:26:26.138Z,20.69
2022-09-06T22:28:55.425Z,20.76
2022-09-06T22:31:24.489Z,20.80
2022-09-06T22:33:52.854Z,20.85
2022-09-06T22:36:24.196Z,20.77
2022-09-06T22:38:56.385Z,20.32
2022-09-06T22:41:25.608Z,20.00
2022-09-06T22:43:53.767Z,20.02
2022-09-06T22:46:22.274Z,20.21
2022-09-06T22:48:50.491Z,20.34
2022-09-06T22:51:18.557Z,20.44
2022-09-06T22:53:47.978Z,20.55
2022-09-06T22:56:16.137Z,20.59
2022-09-06T22:58:44.128Z,20.67
2022-09-06T23:01:14.255Z,20.68
2022-09-06T23:03:42.930Z,20.67
2022-09-06T23:06:11.748Z,20.55
2022-09-06T23:08:41.360Z,20.58
2022-09-06T23:11:12.785Z,20.60
2022-09-06T23:13:44.047Z,20.62
2022-09-06T23:16:14.319Z,20.58
2022-09-06T23:18:42.671Z,20.54
2022-09-06T23:21:12.858Z,20.53
2022-09-06T23:23:42.750Z,20.66
2022-09-06T23:26:13.468Z,20.70
2022-09-06T23:28:41.729Z,20.63
2022-09-06T23:31:11.760Z,20.60
2022-09-06T23:33:40.453Z,20.61
2022-09-06T23:36:10.331Z,20.64
2022-09-06T23:38:41.227Z,20.51
2022-09-06T23:41:10.338Z,20.49
2022-09-06T23:43:40.461Z,20.48
2022-09-06T23:46:09.185Z,20.52
2022-09-06T23:48:37.556Z,20.57
2022-09-06T23:51:05.923Z,20.60
2022-09-06T23:53:34.327Z,20.60
2022-09-06T23:56:03.113Z,20.64
2022-09-06T23:58:31.470Z,20.67
